Detall de PIREP

Printer-friendly versionPDF version

[2012/08/14 06:47:00]
Flight IATA:CT1001
Pilot Number:042
Company ICAO:CAT
Aircraft Type:B738/F
PAX:118
Departing Airport: LKPR
Destination Airport: EBBR
Alternate Airport:EHRD
Online: VATSIM
Route:BALTU UL984 DONAD UT170 RAPET UZ93 DIMSU DCT KONAP DCT ESAMA T880 ASDAK UT880 BATTY
Flight Level:F340
No Slew and time accel
No pause
Crash detect
Detect pilot in Cockpit between each 30 and 45 minutes
06:47 Zero fuel Weight: 118701 Lbs, Fuel Weight: 46058 Lbs
06:47 VATSIM:LKPR 140630Z VRB02KT CAVOK 15/09 Q1017 NOSIG
06:47 VATSIM:EBBR 140620Z 20003KT CAVOK 18/16 Q1013 NOSIG
06:47 VOICE CATALONIAN/DISCOVER EUROPE
06:54 Parking Brakes off
07:00 Take-off
07:00 Take off Weight: 163819 Lbs
07:00 Wind: 359º @ 001 Knots Heading: 065º
07:00 POS N50º 06´ 47´´ E014º 15´ 50´´
07:00 Gear Up: 176 Knots
07:00 Flaps:5 at 176 Knots
07:00 Flaps:4 at 175 Knots
07:01 Flaps:3 at 179 Knots
07:01 Flaps:2 at 187 Knots
07:01 Flaps:1 at 196 Knots
07:02 Flaps:0 at 212 Knots
07:15 Wind:302º@028 Knots Heading: 284º Ground Speed: 431 Knots Altitude 27801 ft
07:20 TOC
07:20 Fuel Weight: 40884 Lb
07:30 Wind:291º@033 Knots Heading: 272º Ground Speed: 430 Knots Altitude 34071 ft
07:45 Wind:292º@057 Knots Heading: 281º Ground Speed: 404 Knots Altitude 34012 ft
07:45 TOD
07:45 Fuel Weight: 38501 Lb
08:00 Wind:209º@009 Knots Heading: 296º Ground Speed: 261 Knots Altitude 8943 ft
08:02 Flaps:1 at 220 Knots
08:05 Flaps:2 at 194 Knots
08:05 Gear Down: 198 Knots
08:05 Flaps:3 at 198 Knots
08:05 Flaps:4 at 203 Knots
08:05 Flaps:5 at 198 Knots
08:05 Flaps:6 at 172 Knots
08:05 Flaps:7 at 171 Knots
08:05 Flaps:8 at 169 Knots
08:08 TouchDown:Rate -146 ft/min Speed: 127 Knots
08:08 VATSIM:EBBR 140750Z VRB02KT CAVOK 21/17 Q1013 NOSIG
08:08 Land
08:08 Wind:331º@001 Knots
08:08 Heading: 248º
08:08 Flight Duration: 01:08
08:08 Landing Weight: 156106 Lbs
08:08 POS N50º 53´ 36´´ E004º 29´ 57´´
08:11 Parking brakes on
08:11 Block to Block Duration: 01:17
08:11 Final Fuel: 37120 Lbls
08:11 Spent Fuel: 8937 Lbls
08:11 Flight Length: 411 NM
08:11 TOD Land Length: 113 NM

Exportar CSV

Powered by Drupal - Modified by Danger4k